createdAt,value
2018-03-04T00:00:35.111Z,83.40
2018-03-04T00:01:35.090Z,83.97
2018-03-04T00:02:35.036Z,83.88
2018-03-04T00:03:35.008Z,83.97
2018-03-04T00:04:34.997Z,84.26
2018-03-04T00:05:34.950Z,84.07
2018-03-04T00:06:34.936Z,83.88
2018-03-04T00:07:34.903Z,83.97
2018-03-04T00:08:34.874Z,84.16
2018-03-04T00:09:34.843Z,83.88
2018-03-04T00:10:34.811Z,83.69
2018-03-04T00:11:34.780Z,83.69
2018-03-04T00:12:34.750Z,83.69
2018-03-04T00:13:34.727Z,83.69
2018-03-04T00:14:34.687Z,83.97
2018-03-04T00:15:34.662Z,84.07
2018-03-04T00:16:34.631Z,84.07
2018-03-04T00:17:34.606Z,84.26
2018-03-04T00:18:34.570Z,84.07
2018-03-04T00:19:34.545Z,84.26
2018-03-04T00:20:34.528Z,84.07
2018-03-04T00:21:34.493Z,84.16
2018-03-04T00:22:34.453Z,83.78
2018-03-04T00:23:34.428Z,84.07
2018-03-04T00:24:34.397Z,84.16
2018-03-04T00:25:34.369Z,84.54
2018-03-04T00:26:34.342Z,84.54
2018-03-04T00:27:34.307Z,84.45
2018-03-04T00:28:34.285Z,84.64
2018-03-04T00:29:34.250Z,84.64
2018-03-04T00:30:34.220Z,84.54
2018-03-04T00:31:34.191Z,84.45
2018-03-04T00:32:34.164Z,84.26
2018-03-04T00:33:34.150Z,84.35
2018-03-04T00:34:34.101Z,84.54
2018-03-04T00:35:34.072Z,84.92
2018-03-04T00:36:34.094Z,85.01
2018-03-04T00:37:34.017Z,84.64
2018-03-04T00:38:33.986Z,84.92
2018-03-04T00:39:34.015Z,84.92
2018-03-04T00:40:33.925Z,84.92
2018-03-04T00:41:33.898Z,85.11
2018-03-04T00:42:33.868Z,85.01
2018-03-04T00:43:33.838Z,84.92
2018-03-04T00:44:33.818Z,84.73
2018-03-04T00:45:33.780Z,85.01
2018-03-04T00:46:33.750Z,85.11
2018-03-04T00:47:33.726Z,85.01
2018-03-04T00:48:33.696Z,85.11
2018-03-04T00:49:33.665Z,85.11
2018-03-04T00:50:33.635Z,85.01
2018-03-04T00:51:33.605Z,85.39
2018-03-04T00:52:33.578Z,85.68
2018-03-04T00:53:33.554Z,85.30
2018-03-04T00:54:33.523Z,85.39
2018-03-04T00:55:33.491Z,85.68
2018-03-04T00:56:33.458Z,85.20
2018-03-04T00:57:33.427Z,85.30
2018-03-04T00:58:33.397Z,85.39
2018-03-04T00:59:33.375Z,85.58
2018-03-04T01:00:33.340Z,85.58
2018-03-04T01:01:33.314Z,85.68
2018-03-04T01:02:33.284Z,85.96
2018-03-04T01:03:33.254Z,85.68
2018-03-04T01:04:33.222Z,85.68
2018-03-04T01:05:33.198Z,85.58
2018-03-04T01:06:33.167Z,85.58
2018-03-04T01:07:33.137Z,85.49
2018-03-04T01:08:33.107Z,85.58
2018-03-04T01:09:33.078Z,85.30
2018-03-04T01:10:33.051Z,85.39
2018-03-04T01:11:33.021Z,85.58
2018-03-04T01:12:32.992Z,85.49
2018-03-04T01:13:32.972Z,85.58
2018-03-04T01:14:32.931Z,85.58
2018-03-04T01:15:32.919Z,85.58
2018-03-04T01:16:32.873Z,85.49
2018-03-04T01:17:32.843Z,85.39
2018-03-04T01:18:32.812Z,85.49
2018-03-04T01:19:32.786Z,85.58
2018-03-04T01:20:32.756Z,85.39
2018-03-04T01:21:32.725Z,85.11
2018-03-04T01:22:32.699Z,85.01
2018-03-04T01:23:32.673Z,85.20
2018-03-04T01:24:32.638Z,85.11
2018-03-04T01:25:32.622Z,85.01
2018-03-04T01:26:32.585Z,85.11
2018-03-04T01:27:32.559Z,85.01
2018-03-04T01:28:32.521Z,85.11
2018-03-04T01:29:32.493Z,85.01
2018-03-04T01:30:32.463Z,85.11
2018-03-04T01:31:32.432Z,85.01
2018-03-04T01:32:32.408Z,84.92
2018-03-04T01:33:32.378Z,85.39
2018-03-04T01:34:32.383Z,85.11
2018-03-04T01:35:32.321Z,85.39
2018-03-04T01:36:32.293Z,85.20
2018-03-04T01:37:32.386Z,84.92
2018-03-04T01:38:32.233Z,85.11
2018-03-04T01:39:32.211Z,85.01
2018-03-04T01:40:32.185Z,85.15
2018-03-04T01:41:32.148Z,85.11
2018-03-04T01:42:32.118Z,85.30
2018-03-04T01:43:32.144Z,85.77
2018-03-04T01:44:32.059Z,85.39
2018-03-04T01:45:32.030Z,86.15
2018-03-04T01:46:32.003Z,85.86
2018-03-04T01:47:31.972Z,85.86
2018-03-04T01:48:31.950Z,85.86
2018-03-04T01:49:31.916Z,85.77
2018-03-04T01:50:31.887Z,85.86
2018-03-04T01:51:31.874Z,86.15
2018-03-04T01:52:31.826Z,86.24
2018-03-04T01:53:31.798Z,86.05
2018-03-04T01:54:31.795Z,85.77
2018-03-04T01:55:31.750Z,86.05
2018-03-04T01:56:31.710Z,86.05
2018-03-04T01:57:31.685Z,86.05
2018-03-04T01:58:31.661Z,86.15
2018-03-04T01:59:31.632Z,85.86
2018-03-04T02:00:31.602Z,85.96
2018-03-04T02:01:31.567Z,85.77
2018-03-04T02:02:31.537Z,86.52
2018-03-04T02:03:31.517Z,86.24
2018-03-04T02:04:31.479Z,86.71
2018-03-04T02:05:31.456Z,86.52
2018-03-04T02:06:31.424Z,86.43
2018-03-04T02:07:31.397Z,86.43
2018-03-04T02:08:31.363Z,86.52
2018-03-04T02:09:31.335Z,86.43
2018-03-04T02:10:31.308Z,86.24
2018-03-04T02:11:31.286Z,86.71
2018-03-04T02:12:31.253Z,86.71
2018-03-04T02:13:31.225Z,86.62
2018-03-04T02:14:31.194Z,86.80
2018-03-04T02:15:31.163Z,86.80
2018-03-04T02:16:31.142Z,87.47
2018-03-04T02:17:31.121Z,87.28
2018-03-04T02:18:31.076Z,87.18
2018-03-04T02:19:31.060Z,87.09
2018-03-04T02:20:31.023Z,87.37
2018-03-04T02:21:31.008Z,87.37
2018-03-04T02:22:30.961Z,86.90
2018-03-04T02:23:30.931Z,87.37
2018-03-04T02:24:30.910Z,87.56
2018-03-04T02:25:30.891Z,87.47
2018-03-04T02:26:30.856Z,87.47
2018-03-04T02:27:30.816Z,87.37
2018-03-04T02:28:30.788Z,87.56
2018-03-04T02:29:30.766Z,87.56
2018-03-04T02:30:30.730Z,87.37
2018-03-04T02:31:30.703Z,87.66
2018-03-04T02:32:30.671Z,87.75
2018-03-04T02:33:30.643Z,87.66
2018-03-04T02:34:30.614Z,87.66
2018-03-04T02:35:30.585Z,87.75
2018-03-04T02:36:30.584Z,87.37
2018-03-04T02:37:30.524Z,87.66
2018-03-04T02:38:30.494Z,87.47
2018-03-04T02:39:30.471Z,87.47
2018-03-04T02:40:30.438Z,87.56
2018-03-04T02:41:30.413Z,87.56
2018-03-04T02:42:30.380Z,87.37
2018-03-04T02:43:30.359Z,87.66
2018-03-04T02:44:30.322Z,87.75
2018-03-04T02:45:30.303Z,87.66
2018-03-04T02:46:30.267Z,87.37
2018-03-04T02:47:30.238Z,87.70
2018-03-04T02:48:30.208Z,87.75
2018-03-04T02:49:30.178Z,87.32
2018-03-04T02:50:30.151Z,87.47
2018-03-04T02:51:30.120Z,87.66
2018-03-04T02:52:30.090Z,87.13
2018-03-04T02:53:30.064Z,87.61
2018-03-04T02:54:30.032Z,87.47
2018-03-04T02:55:30.013Z,87.79
2018-03-04T02:56:29.980Z,87.70
2018-03-04T02:57:29.953Z,87.51
2018-03-04T02:58:29.972Z,87.32
2018-03-04T02:59:29.889Z,87.42
2018-03-04T03:00:29.862Z,87.70
2018-03-04T03:01:29.831Z,87.51
2018-03-04T03:02:29.802Z,87.32
2018-03-04T03:03:29.776Z,87.51
2018-03-04T03:04:29.751Z,87.04
2018-03-04T03:05:29.748Z,87.32
2018-03-04T03:06:29.688Z,87.13
2018-03-04T03:07:29.661Z,87.51
2018-03-04T03:08:29.642Z,86.85
2018-03-04T03:09:29.606Z,87.23
2018-03-04T03:10:29.588Z,87.42
2018-03-04T03:11:29.566Z,87.13
2018-03-04T03:12:29.528Z,87.51
2018-03-04T03:13:29.495Z,87.32
2018-03-04T03:14:29.465Z,87.04
2018-03-04T03:15:29.431Z,87.04
2018-03-04T03:16:29.405Z,86.76
2018-03-04T03:17:29.392Z,86.57
2018-03-04T03:18:29.346Z,86.85
2018-03-04T03:19:29.315Z,87.04
2018-03-04T03:20:29.290Z,87.13
2018-03-04T03:21:29.264Z,87.61
2018-03-04T03:22:29.242Z,87.32
2018-03-04T03:23:29.202Z,87.13
2018-03-04T03:24:29.174Z,87.23
2018-03-04T03:25:29.147Z,87.42
2018-03-04T03:26:29.117Z,87.32
2018-03-04T03:27:29.095Z,87.23
2018-03-04T03:28:29.067Z,86.76
2018-03-04T03:29:29.039Z,86.85
2018-03-04T03:30:29.008Z,86.85
2018-03-04T03:31:28.978Z,87.32
2018-03-04T03:32:28.946Z,87.32
2018-03-04T03:33:28.924Z,87.04
2018-03-04T03:34:28.891Z,87.04
2018-03-04T03:35:28.860Z,87.51
2018-03-04T03:36:28.833Z,87.51
2018-03-04T03:37:28.806Z,87.51
2018-03-04T03:38:28.776Z,87.42
2018-03-04T03:39:28.752Z,87.42
2018-03-04T03:40:28.720Z,86.85
2018-03-04T03:41:28.692Z,87.32
2018-03-04T03:42:28.665Z,86.94
2018-03-04T03:43:28.711Z,87.61
2018-03-04T03:44:28.610Z,87.70
2018-03-04T03:45:28.636Z,87.32
2018-03-04T03:46:28.566Z,87.51
2018-03-04T03:47:28.533Z,87.79
2018-03-04T03:48:28.494Z,87.98
2018-03-04T03:49:28.472Z,87.70
2018-03-04T03:50:28.438Z,87.98
2018-03-04T03:51:28.408Z,87.32
2018-03-04T03:52:28.379Z,87.51
2018-03-04T03:53:28.354Z,87.61
2018-03-04T03:54:28.322Z,87.61
2018-03-04T03:55:28.301Z,87.32
2018-03-04T03:56:28.269Z,87.61
2018-03-04T03:57:28.238Z,87.42
2018-03-04T03:58:28.212Z,87.70
2018-03-04T03:59:28.184Z,88.08
2018-03-04T04:00:28.151Z,87.51
2018-03-04T04:01:28.141Z,87.70
2018-03-04T04:02:28.098Z,87.32
2018-03-04T04:03:28.079Z,87.42
2018-03-04T04:04:28.048Z,87.32
2018-03-04T04:05:28.012Z,87.51
2018-03-04T04:06:27.985Z,87.32
2018-03-04T04:07:27.956Z,87.51
2018-03-04T04:08:27.927Z,87.23
2018-03-04T04:09:27.913Z,86.94
2018-03-04T04:10:27.872Z,87.13
2018-03-04T04:11:27.847Z,87.13
2018-03-04T04:12:27.870Z,87.23
2018-03-04T04:13:27.786Z,87.70
2018-03-04T04:14:27.760Z,87.61
2018-03-04T04:15:27.739Z,87.89
2018-03-04T04:16:27.705Z,88.08
2018-03-04T04:17:27.675Z,88.84
2018-03-04T04:18:27.648Z,88.74
2018-03-04T04:19:27.617Z,88.74
2018-03-04T04:20:27.635Z,89.50
2018-03-04T04:21:27.566Z,89.69
2018-03-04T04:22:27.536Z,89.59
2018-03-04T04:23:27.509Z,90.06
2018-03-04T04:24:27.477Z,90.06
2018-03-04T04:25:27.457Z,89.59
2018-03-04T04:26:27.432Z,90.25
2018-03-04T04:27:27.395Z,90.73
2018-03-04T04:28:27.364Z,90.73
2018-03-04T04:29:27.338Z,90.73
2018-03-04T04:30:27.309Z,90.73
2018-03-04T04:31:27.283Z,90.63
2018-03-04T04:32:27.254Z,91.10
2018-03-04T04:33:27.225Z,91.48
2018-03-04T04:34:27.195Z,91.67
2018-03-04T04:35:27.168Z,91.48
2018-03-04T04:36:27.143Z,91.01
2018-03-04T04:37:27.208Z,91.29
2018-03-04T04:38:27.083Z,91.29
2018-03-04T04:39:27.055Z,91.96
2018-03-04T04:40:27.027Z,92.33
2018-03-04T04:41:27.003Z,92.80
2018-03-04T04:42:26.973Z,92.61
2018-03-04T04:43:26.952Z,92.52
2018-03-04T04:44:27.040Z,92.61
2018-03-04T04:45:26.890Z,92.61
2018-03-04T04:46:26.862Z,92.90
2018-03-04T04:47:26.835Z,93.18
2018-03-04T04:48:26.817Z,93.18
2018-03-04T04:49:26.776Z,92.90
2018-03-04T04:50:26.750Z,93.09
2018-03-04T04:51:26.721Z,92.99
2018-03-04T04:52:26.690Z,93.37
2018-03-04T04:53:26.662Z,93.37
2018-03-04T04:54:26.635Z,93.37
2018-03-04T04:55:26.618Z,93.09
2018-03-04T04:56:26.580Z,93.37
2018-03-04T04:57:26.561Z,94.03
2018-03-04T04:58:26.522Z,93.66
2018-03-04T04:59:26.495Z,93.94
2018-03-04T05:00:26.472Z,94.32
2018-03-04T05:01:26.439Z,93.66
2018-03-04T05:02:26.412Z,94.51
2018-03-04T05:03:26.393Z,94.60
2018-03-04T05:04:26.353Z,94.41
2018-03-04T05:05:26.330Z,94.22
2018-03-04T05:06:26.398Z,95.07
2018-03-04T05:07:26.270Z,94.89
2018-03-04T05:08:26.244Z,94.41
2018-03-04T05:09:26.224Z,94.51
2018-03-04T05:10:26.188Z,94.60
2018-03-04T05:11:26.158Z,94.51
2018-03-04T05:12:26.145Z,94.32
2018-03-04T05:13:26.102Z,94.51
2018-03-04T05:14:26.077Z,94.03
2018-03-04T05:15:26.048Z,93.94
2018-03-04T05:16:26.022Z,94.03
2018-03-04T05:17:26.004Z,94.03
2018-03-04T05:18:25.975Z,94.32
2018-03-04T05:19:25.938Z,94.22
2018-03-04T05:20:25.909Z,93.94
2018-03-04T05:21:25.881Z,94.03
2018-03-04T05:22:25.852Z,93.47
2018-03-04T05:23:25.827Z,93.75
2018-03-04T05:24:25.797Z,94.03
2018-03-04T05:25:25.770Z,94.22
2018-03-04T05:26:25.742Z,94.41
2018-03-04T05:27:25.714Z,94.60
2018-03-04T05:28:25.689Z,94.32
2018-03-04T05:29:25.679Z,94.41
2018-03-04T05:30:25.631Z,95.07
2018-03-04T05:31:25.606Z,95.17
2018-03-04T05:32:25.574Z,94.89
2018-03-04T05:33:25.547Z,94.60
2018-03-04T05:34:25.523Z,94.98
2018-03-04T05:35:25.498Z,94.89
2018-03-04T05:36:25.464Z,95.07
2018-03-04T05:37:25.453Z,95.26
2018-03-04T05:38:25.414Z,95.45
2018-03-04T05:39:25.380Z,95.07
2018-03-04T05:40:25.363Z,95.17
2018-03-04T05:41:25.324Z,94.98
2018-03-04T05:42:25.317Z,94.98
2018-03-04T05:43:25.266Z,95.07
2018-03-04T05:44:25.282Z,94.79
2018-03-04T05:45:25.215Z,94.98
2018-03-04T05:46:25.182Z,94.70
2018-03-04T05:47:25.158Z,94.32
2018-03-04T05:48:25.127Z,94.41
2018-03-04T05:49:25.103Z,94.13
2018-03-04T05:50:25.073Z,94.51
2018-03-04T05:51:25.048Z,94.70
2018-03-04T05:52:25.018Z,94.60
2018-03-04T05:53:24.993Z,94.51
2018-03-04T05:54:24.968Z,94.79
2018-03-04T05:55:24.935Z,94.03
2018-03-04T05:56:24.916Z,93.75
2018-03-04T05:57:24.888Z,93.84
2018-03-04T05:58:24.851Z,93.94
2018-03-04T05:59:24.827Z,93.75
2018-03-04T06:00:24.806Z,93.84
2018-03-04T06:01:24.772Z,94.41
2018-03-04T06:02:24.742Z,94.32
2018-03-04T06:03:24.711Z,94.51
2018-03-04T06:04:24.704Z,94.22
2018-03-04T06:05:24.833Z,94.51
2018-03-04T06:06:24.635Z,93.94
2018-03-04T06:07:24.604Z,94.22
2018-03-04T06:08:24.582Z,94.41
2018-03-04T06:09:24.556Z,94.22
2018-03-04T06:10:24.521Z,94.89
2018-03-04T06:11:24.494Z,94.79
2018-03-04T06:12:24.465Z,94.89
2018-03-04T06:13:24.440Z,94.98
2018-03-04T06:14:24.409Z,94.41
2018-03-04T06:15:24.382Z,94.51
2018-03-04T06:16:24.351Z,94.51
2018-03-04T06:17:24.330Z,94.98
2018-03-04T06:18:24.298Z,95.07
2018-03-04T06:19:24.271Z,94.89
2018-03-04T06:20:24.245Z,95.07
2018-03-04T06:21:24.219Z,94.98
2018-03-04T06:22:24.196Z,95.17
2018-03-04T06:23:24.162Z,95.17
2018-03-04T06:24:24.244Z,95.64
2018-03-04T06:25:24.103Z,95.36
2018-03-04T06:26:24.085Z,95.64
2018-03-04T06:27:24.048Z,95.45
2018-03-04T06:28:24.021Z,95.73
2018-03-04T06:29:23.993Z,95.26
2018-03-04T06:30:23.968Z,95.64
2018-03-04T06:31:23.945Z,95.07
2018-03-04T06:32:23.918Z,95.64
2018-03-04T06:33:23.901Z,95.36
2018-03-04T06:34:23.867Z,95.73
2018-03-04T06:35:23.826Z,95.07
2018-03-04T06:36:23.796Z,94.79
2018-03-04T06:37:23.786Z,94.70
2018-03-04T06:38:23.741Z,94.98
2018-03-04T06:39:23.715Z,95.17
2018-03-04T06:40:23.690Z,94.60
2018-03-04T06:41:23.658Z,95.07
2018-03-04T06:42:23.630Z,95.26
2018-03-04T06:43:23.617Z,95.31
2018-03-04T06:44:23.579Z,95.03
2018-03-04T06:45:23.549Z,95.07
2018-03-04T06:46:23.520Z,95.26
2018-03-04T06:47:23.490Z,94.93
2018-03-04T06:48:23.466Z,95.03
2018-03-04T06:49:23.434Z,95.12
2018-03-04T06:50:23.406Z,95.31
2018-03-04T06:51:23.379Z,94.56
2018-03-04T06:52:23.354Z,94.37
2018-03-04T06:53:23.323Z,93.70
2018-03-04T06:54:23.294Z,94.18
2018-03-04T06:55:23.268Z,93.61
2018-03-04T06:56:23.252Z,93.89
2018-03-04T06:57:23.214Z,93.89
2018-03-04T06:58:23.184Z,93.70
2018-03-04T06:59:23.157Z,93.89
2018-03-04T07:00:23.140Z,93.89
2018-03-04T07:01:23.101Z,93.99
2018-03-04T07:02:23.082Z,94.46
2018-03-04T07:03:23.047Z,94.27
2018-03-04T07:04:23.023Z,94.27
2018-03-04T07:05:23.027Z,93.51
2018-03-04T07:06:22.968Z,94.08
2018-03-04T07:07:22.940Z,94.37
2018-03-04T07:08:22.912Z,94.08
2018-03-04T07:09:22.883Z,93.70
2018-03-04T07:10:22.856Z,93.70
2018-03-04T07:11:22.830Z,93.89
2018-03-04T07:12:22.802Z,93.99
2018-03-04T07:13:22.777Z,93.42
2018-03-04T07:14:22.755Z,93.04
2018-03-04T07:15:22.726Z,92.94
2018-03-04T07:16:22.699Z,93.04
2018-03-04T07:17:22.669Z,93.13
2018-03-04T07:18:22.640Z,93.37
2018-03-04T07:19:22.611Z,92.90
2018-03-04T07:20:22.589Z,92.66
2018-03-04T07:21:22.560Z,92.80
2018-03-04T07:22:22.530Z,92.76
2018-03-04T07:23:22.505Z,92.85
2018-03-04T07:24:22.488Z,93.13
2018-03-04T07:25:22.452Z,93.13
2018-03-04T07:26:22.431Z,93.51
2018-03-04T07:27:22.398Z,93.23
2018-03-04T07:28:22.372Z,93.99
2018-03-04T07:29:22.342Z,94.04
2018-03-04T07:30:22.319Z,93.09
2018-03-04T07:31:22.290Z,93.09
2018-03-04T07:32:22.278Z,92.90
2018-03-04T07:33:22.280Z,92.61
2018-03-04T07:34:22.210Z,92.90
2018-03-04T07:35:22.181Z,92.61
2018-03-04T07:36:22.156Z,93.18
2018-03-04T07:37:22.127Z,93.09
2018-03-04T07:38:22.181Z,93.09
2018-03-04T07:39:22.099Z,93.09
2018-03-04T07:40:22.133Z,93.09
2018-03-04T07:41:22.037Z,93.23
2018-03-04T07:42:21.991Z,93.28
2018-03-04T07:43:21.996Z,93.23
2018-03-04T07:44:21.957Z,93.75
2018-03-04T07:45:21.917Z,93.75
2018-03-04T07:46:21.887Z,93.18
2018-03-04T07:47:21.861Z,94.04
2018-03-04T07:48:21.836Z,93.85
2018-03-04T07:49:21.806Z,93.66
2018-03-04T07:50:21.787Z,93.85
2018-03-04T07:51:21.750Z,93.66
2018-03-04T07:52:21.728Z,94.13
2018-03-04T07:53:21.697Z,94.13
2018-03-04T07:54:21.671Z,93.66
2018-03-04T07:55:21.665Z,94.04
2018-03-04T07:56:21.624Z,94.32
2018-03-04T07:57:21.590Z,94.04
2018-03-04T07:58:21.570Z,94.23
2018-03-04T07:59:21.538Z,93.94
2018-03-04T08:00:21.519Z,93.85
2018-03-04T08:01:21.489Z,93.37
2018-03-04T08:02:21.457Z,93.37
2018-03-04T08:03:21.437Z,93.66
2018-03-04T08:04:21.406Z,93.85
2018-03-04T08:05:21.379Z,93.94
2018-03-04T08:06:21.348Z,93.66
2018-03-04T08:07:21.332Z,94.23
2018-03-04T08:08:21.307Z,94.13
2018-03-04T08:09:21.265Z,93.85
2018-03-04T08:10:21.245Z,93.09
2018-03-04T08:11:21.216Z,93.18
2018-03-04T08:12:21.185Z,92.90
2018-03-04T08:13:21.167Z,93.28
2018-03-04T08:14:21.134Z,93.18
2018-03-04T08:15:21.112Z,93.28
2018-03-04T08:16:21.091Z,93.18
2018-03-04T08:17:21.103Z,93.18
2018-03-04T08:18:21.025Z,92.80
2018-03-04T08:19:21.004Z,92.52
2018-03-04T08:20:20.985Z,92.90
2018-03-04T08:21:20.951Z,92.71
2018-03-04T08:22:20.922Z,92.10
2018-03-04T08:23:20.893Z,91.72
2018-03-04T08:24:20.868Z,91.62
2018-03-04T08:25:20.845Z,91.39
2018-03-04T08:26:20.821Z,91.67
2018-03-04T08:27:20.790Z,92.24
2018-03-04T08:28:20.764Z,92.71
2018-03-04T08:29:20.735Z,92.61
2018-03-04T08:30:20.709Z,92.71
2018-03-04T08:31:20.686Z,92.57
2018-03-04T08:32:20.662Z,91.91
2018-03-04T08:33:20.631Z,91.91
2018-03-04T08:34:20.612Z,92.10
2018-03-04T08:35:20.579Z,91.05
2018-03-04T08:36:20.551Z,91.62
2018-03-04T08:37:20.530Z,91.24
2018-03-04T08:38:20.502Z,91.43
2018-03-04T08:39:20.476Z,91.53
2018-03-04T08:40:20.490Z,91.72
2018-03-04T08:41:20.425Z,91.91
2018-03-04T08:42:20.467Z,92.61
2018-03-04T08:43:20.379Z,92.66
2018-03-04T08:44:20.350Z,93.04
2018-03-04T08:45:20.339Z,93.32
2018-03-04T08:46:20.305Z,92.76
2018-03-04T08:47:20.271Z,93.13
2018-03-04T08:48:20.278Z,92.76
2018-03-04T08:49:20.223Z,92.66
2018-03-04T08:50:20.191Z,92.57
2018-03-04T08:51:20.186Z,92.94
2018-03-04T08:52:20.147Z,92.66
2018-03-04T08:53:20.126Z,92.57
2018-03-04T08:54:20.086Z,92.47
2018-03-04T08:55:20.059Z,92.00
2018-03-04T08:56:20.045Z,92.47
2018-03-04T08:57:20.008Z,92.38
2018-03-04T08:58:19.984Z,92.00
2018-03-04T08:59:19.957Z,92.10
2018-03-04T09:00:19.933Z,92.29
2018-03-04T09:01:19.908Z,92.66
2018-03-04T09:02:19.932Z,91.43
2018-03-04T09:03:19.856Z,92.38
2018-03-04T09:04:19.828Z,92.57
2018-03-04T09:05:19.818Z,92.47
2018-03-04T09:06:19.786Z,92.57
2018-03-04T09:07:19.762Z,92.66
2018-03-04T09:08:19.727Z,92.47
2018-03-04T09:09:19.698Z,92.38
2018-03-04T09:10:19.674Z,92.66
2018-03-04T09:11:19.661Z,92.85
2018-03-04T09:12:19.628Z,93.23
2018-03-04T09:13:19.603Z,93.23
2018-03-04T09:14:19.570Z,93.04
2018-03-04T09:15:19.552Z,92.76
2018-03-04T09:16:19.518Z,93.13
2018-03-04T09:17:19.513Z,92.76
2018-03-04T09:18:19.522Z,92.57
2018-03-04T09:19:19.439Z,92.47
2018-03-04T09:20:19.416Z,92.57
2018-03-04T09:21:19.398Z,92.38
2018-03-04T09:22:19.366Z,92.38
2018-03-04T09:23:19.384Z,91.81
2018-03-04T09:24:19.313Z,91.05
2018-03-04T09:25:19.284Z,91.91
2018-03-04T09:26:19.261Z,91.91
2018-03-04T09:27:19.234Z,91.95
2018-03-04T09:28:19.219Z,91.29
2018-03-04T09:29:19.190Z,91.53
2018-03-04T09:30:19.154Z,91.48
2018-03-04T09:31:19.132Z,91.24
2018-03-04T09:32:19.107Z,91.67
2018-03-04T09:33:19.084Z,91.10
2018-03-04T09:34:19.057Z,90.53
2018-03-04T09:35:19.026Z,90.63
2018-03-04T09:36:19.004Z,90.81
2018-03-04T09:37:18.980Z,90.06
2018-03-04T09:38:18.953Z,90.06
2018-03-04T09:39:18.925Z,90.25
2018-03-04T09:40:19.089Z,90.44
2018-03-04T09:41:18.881Z,89.58
2018-03-04T09:42:18.856Z,89.49
2018-03-04T09:43:18.834Z,88.73
2018-03-04T09:44:18.801Z,88.54
2018-03-04T09:45:18.776Z,88.78
2018-03-04T09:46:18.752Z,88.96
2018-03-04T09:47:18.731Z,88.40
2018-03-04T09:48:18.705Z,88.17
2018-03-04T09:49:18.681Z,88.59
2018-03-04T09:50:18.652Z,88.68
2018-03-04T09:51:18.641Z,88.02
2018-03-04T09:52:18.603Z,87.54
2018-03-04T09:53:18.583Z,86.98
2018-03-04T09:54:18.551Z,86.69
2018-03-04T09:55:18.537Z,86.22
2018-03-04T09:56:18.509Z,86.69
2018-03-04T09:57:18.488Z,86.74
2018-03-04T09:58:18.460Z,85.97
2018-03-04T09:59:18.436Z,86.26
2018-03-04T10:00:18.408Z,85.69
2018-03-04T10:01:18.395Z,85.60
2018-03-04T10:02:18.362Z,86.16
2018-03-04T10:03:18.340Z,86.31
2018-03-04T10:04:18.322Z,86.31
2018-03-04T10:05:18.291Z,86.64
2018-03-04T10:06:18.268Z,86.74
2018-03-04T10:07:18.262Z,86.55
2018-03-04T10:08:18.229Z,86.55
2018-03-04T10:09:18.200Z,85.97
2018-03-04T10:10:18.177Z,85.78
2018-03-04T10:11:18.156Z,85.60
2018-03-04T10:12:18.275Z,85.41
2018-03-04T10:13:18.106Z,85.13
2018-03-04T10:14:18.080Z,85.60
2018-03-04T10:15:18.064Z,86.16
2018-03-04T10:16:18.041Z,85.50
2018-03-04T10:17:18.010Z,84.94
2018-03-04T10:18:18.009Z,85.50
2018-03-04T10:19:17.966Z,86.26
2018-03-04T10:20:17.940Z,86.16
2018-03-04T10:21:17.917Z,85.69
2018-03-04T10:22:17.897Z,85.31
2018-03-04T10:23:17.964Z,85.03
2018-03-04T10:24:17.851Z,84.94
2018-03-04T10:25:17.826Z,84.59
2018-03-04T10:26:17.907Z,83.65
2018-03-04T10:27:17.787Z,83.36
2018-03-04T10:28:17.761Z,83.08
2018-03-04T10:29:17.736Z,83.65
2018-03-04T10:30:17.726Z,82.98
2018-03-04T10:31:17.737Z,82.79
2018-03-04T10:32:17.675Z,83.08
2018-03-04T10:33:17.643Z,82.27
2018-03-04T10:34:17.623Z,82.65
2018-03-04T10:35:17.599Z,81.51
2018-03-04T10:36:17.605Z,80.94
2018-03-04T10:37:17.555Z,80.46
2018-03-04T10:38:17.544Z,80.08
2018-03-04T10:39:17.508Z,79.61
2018-03-04T10:40:17.496Z,80.94
2018-03-04T10:41:17.509Z,81.04
2018-03-04T10:42:17.444Z,79.36
2018-03-04T10:43:17.422Z,78.80
2018-03-04T10:44:17.420Z,78.99
2018-03-04T10:45:17.381Z,78.64
2018-03-04T10:46:17.361Z,76.31
2018-03-04T10:47:17.341Z,74.60
2018-03-04T10:48:17.464Z,73.74
2018-03-04T10:49:17.296Z,73.49
2018-03-04T10:50:17.275Z,71.66
2018-03-04T10:51:17.259Z,72.89
2018-03-04T10:52:17.236Z,73.18
2018-03-04T10:53:17.216Z,72.89
2018-03-04T10:54:17.210Z,73.02
2018-03-04T10:55:17.182Z,71.44
2018-03-04T10:56:17.157Z,69.48
2018-03-04T10:57:17.141Z,67.95
2018-03-04T10:58:17.151Z,67.73
2018-03-04T10:59:17.100Z,69.00
2018-03-04T11:00:17.081Z,68.33
2018-03-04T11:01:17.065Z,68.74
2018-03-04T11:02:17.059Z,69.60
2018-03-04T11:03:17.031Z,69.82
2018-03-04T11:04:17.009Z,69.57
2018-03-04T11:05:17.000Z,68.33
2018-03-04T11:06:16.976Z,67.13
2018-03-04T11:07:16.959Z,65.64
2018-03-04T11:08:16.951Z,64.53
2018-03-04T11:09:16.922Z,66.78
2018-03-04T11:10:16.917Z,68.21
2018-03-04T11:11:16.897Z,68.90
2018-03-04T11:12:16.879Z,67.95
2018-03-04T11:13:16.852Z,67.13
2018-03-04T11:14:16.841Z,66.27
2018-03-04T11:15:16.914Z,65.42
2018-03-04T11:16:16.819Z,65.32
2018-03-04T11:17:16.794Z,65.26
2018-03-04T11:18:16.831Z,63.92
2018-03-04T11:19:16.757Z,63.45
2018-03-04T11:20:16.746Z,63.54
2018-03-04T11:21:16.749Z,62.81
2018-03-04T11:22:16.706Z,62.24
2018-03-04T11:23:16.691Z,61.29
2018-03-04T11:24:16.680Z,61.38
2018-03-04T11:25:16.681Z,62.30
2018-03-04T11:26:16.647Z,64.47
2018-03-04T11:27:16.626Z,66.33
2018-03-04T11:28:16.626Z,66.46
2018-03-04T11:29:16.598Z,65.73
2018-03-04T11:30:16.577Z,65.48
2018-03-04T11:31:16.569Z,66.53
2018-03-04T11:32:16.547Z,68.11
2018-03-04T11:33:16.530Z,69.25
2018-03-04T11:34:16.518Z,68.90
2018-03-04T11:35:16.502Z,68.08
2018-03-04T11:36:16.483Z,66.21
2018-03-04T11:37:16.474Z,65.23
2018-03-04T11:38:16.449Z,65.23
2018-03-04T11:39:16.460Z,66.62
2018-03-04T11:40:16.430Z,66.81
2018-03-04T11:41:16.402Z,67.19
2018-03-04T11:43:16.368Z,66.94
2018-03-04T11:44:16.373Z,66.66
2018-03-04T11:45:16.344Z,67.38
2018-03-04T11:46:16.321Z,67.99
2018-03-04T11:47:16.327Z,68.18
2018-03-04T11:48:16.287Z,67.07
2018-03-04T11:49:16.293Z,65.58
2018-03-04T11:50:16.273Z,63.96
2018-03-04T11:51:16.234Z,62.84
2018-03-04T11:52:16.217Z,62.62
2018-03-04T11:53:16.203Z,64.15
2018-03-04T11:54:16.216Z,63.64
2018-03-04T11:55:16.192Z,64.02
2018-03-04T11:56:16.152Z,64.78
2018-03-04T11:57:16.138Z,63.96
2018-03-04T11:58:16.124Z,64.50
2018-03-04T11:59:16.114Z,65.07
2018-03-04T12:00:16.092Z,64.34
2018-03-04T12:01:16.077Z,63.57
2018-03-04T12:02:16.054Z,63.67
2018-03-04T12:03:16.040Z,63.48
2018-03-04T12:04:16.050Z,62.72
2018-03-04T12:05:16.009Z,64.12
2018-03-04T12:06:15.989Z,64.34
2018-03-04T12:07:15.968Z,64.62
2018-03-04T12:08:15.945Z,64.15
2018-03-04T12:09:15.930Z,63.96
2018-03-04T12:10:15.922Z,64.15
2018-03-04T12:11:15.898Z,63.51
2018-03-04T12:12:15.872Z,63.67
2018-03-04T12:13:15.853Z,65.55
2018-03-04T12:14:15.838Z,67.22
2018-03-04T12:15:15.837Z,68.37
2018-03-04T12:16:15.810Z,69.42
2018-03-04T12:17:15.782Z,68.98
2018-03-04T12:18:15.780Z,67.93
2018-03-04T12:19:15.761Z,67.07
2018-03-04T12:20:15.773Z,68.02
2018-03-04T12:21:15.711Z,67.93
2018-03-04T12:22:15.698Z,67.64
2018-03-04T12:23:15.678Z,66.34
2018-03-04T12:24:15.657Z,65.39
2018-03-04T12:25:15.637Z,64.91
2018-03-04T12:26:15.624Z,66.31
2018-03-04T12:27:15.663Z,66.53
2018-03-04T12:28:15.578Z,65.77
2018-03-04T12:29:15.567Z,65.58
2018-03-04T12:30:15.541Z,65.39
2018-03-04T12:31:15.531Z,65.58
2018-03-04T12:32:15.512Z,66.59
2018-03-04T12:33:15.495Z,67.83
2018-03-04T12:34:15.466Z,68.21
2018-03-04T12:35:15.445Z,68.12
2018-03-04T12:36:15.447Z,68.02
2018-03-04T12:37:15.410Z,68.30
2018-03-04T12:38:15.385Z,68.40
2018-03-04T12:39:15.376Z,68.12
2018-03-04T12:40:15.353Z,68.02
2018-03-04T12:41:15.340Z,68.30
2018-03-04T12:42:15.311Z,68.12
2018-03-04T12:43:15.288Z,67.64
2018-03-04T12:44:15.270Z,68.12
2018-03-04T12:45:15.250Z,67.74
2018-03-04T12:46:15.237Z,67.86
2018-03-04T12:47:15.210Z,68.12
2018-03-04T12:48:15.194Z,68.50
2018-03-04T12:49:15.178Z,68.69
2018-03-04T12:50:15.168Z,69.07
2018-03-04T12:51:15.132Z,70.08
2018-03-04T12:52:15.140Z,70.75
2018-03-04T12:53:15.114Z,70.27